Villanueva del Pardillo, Spain
Current Conditions -  °F | °C
As of 11:46 AM on Thursday 27 Nov 2014 (Local Time) from LEVS Reporting Station
Light Rain Light Rain  
Wind Chill: 45°   Ceiling: 500
Heat Index: 48°   Visibility: 2.5mi
Dew Point: 48°   Wind: 7mph
Humidity: 100%   Direction: 120°ESE
Pressure: 29.62"   Gusts: NA
Location:  40.48°N, 3.97°W
Report Text: LEVS 271046Z 12006KT 080V150 4000 -RA BR BKN005 09/09 Q1003
Loading
Personal Weather Stations






























Interactive Weather Map New forecast layout! Learn more

10-Day Weather Forecast

Advertisements
Track Severe Weather on mobile